Montrose, Minnesota
Current Conditions -  °F | °C
As of 1:55 PM on Thursday 30 Oct 2014 (Local Time) from KCFE Reporting Station
Overcast Overcast  
Wind Chill:   Ceiling: 4500
Heat Index:   Visibility: 10mi
Dew Point:   Wind: 7mph
Humidity: 63%   Direction: 10°N
Pressure: 30.13"   Gusts: NA
Location:  45.06°N, 93.91°W
Report Text: KCFE 301855Z AUTO 01006KT 10SM BKN045 OVC060 08/02 A3013 RMK AO2 T00840017
Loading
Personal Weather Stations






























Interactive Weather Map
Tropical Storm Tracking
New forecast layout! Learn more

10-Day Weather Forecast

Advertisements
Track Severe Weather on mobile